Time;durP1;ratioP1;P1;durP2;ratioP2;P2;SDS_P1;SDS_P2;PMS_P1;PMS_P2;Temp;Humidity;BMP_temperature;BMP_pressure;BME280_temperature;BME280_humidity;BME280_pressure;Samples;Min_cycle;Max_cycle;Signal;HPM_P1;HPM_P2
2024/01/15 00:00:42;;;;;;;17.13;10.73;;;-7.90;99.90;;;;;;4996378;28;20125;-84
2024/01/15 00:03:09;;;;;;;19.90;10.57;;;-7.80;99.90;;;;;;5013707;28;20022;-85
2024/01/15 00:05:35;;;;;;;18.55;10.82;;;-7.80;99.90;;;;;;5017263;28;20053;-84
2024/01/15 00:08:01;;;;;;;17.90;10.23;;;-7.80;99.90;;;;;;5022393;28;20070;-84
2024/01/15 00:10:27;;;;;;;20.40;8.48;;;-7.80;99.90;;;;;;5014875;28;20018;-84
2024/01/15 00:12:52;;;;;;;13.13;6.78;;;-7.80;99.90;;;;;;5023126;28;20018;-84
2024/01/15 00:15:18;;;;;;;22.15;13.18;;;-7.80;99.90;;;;;;5024757;28;20490;-84
2024/01/15 00:17:44;;;;;;;15.75;10.38;;;-7.90;99.90;;;;;;5018082;28;20026;-83
2024/01/15 00:20:10;;;;;;;19.70;11.93;;;-7.80;99.90;;;;;;5014508;28;20022;-85
2024/01/15 00:22:36;;;;;;;20.27;8.40;;;-7.80;99.90;;;;;;5013930;28;20435;-84
2024/01/15 00:25:03;;;;;;;17.38;11.30;;;-7.80;99.90;;;;;;5013770;28;20033;-82
2024/01/15 00:27:29;;;;;;;13.80;9.02;;;-7.80;99.90;;;;;;5014367;28;20030;-84
2024/01/15 00:29:54;;;;;;;13.20;9.38;;;-7.80;99.90;;;;;;5013208;28;20092;-84
2024/01/15 00:32:21;;;;;;;19.30;10.93;;;-7.80;99.90;;;;;;5013633;28;20479;-85
2024/01/15 00:34:47;;;;;;;16.63;10.68;;;-7.80;99.90;;;;;;5014266;28;20057;-83
2024/01/15 00:37:13;;;;;;;14.43;7.95;;;-7.80;99.90;;;;;;5012130;28;20108;-84
2024/01/15 00:39:39;;;;;;;23.17;11.55;;;-7.80;99.90;;;;;;5013069;28;20025;-85
2024/01/15 00:42:05;;;;;;;15.05;9.82;;;-7.80;99.90;;;;;;5015165;28;20080;-84
2024/01/15 00:44:30;;;;;;;14.02;9.38;;;-7.80;99.90;;;;;;5004907;28;20106;-85
2024/01/15 00:46:56;;;;;;;15.70;10.75;;;-7.80;99.90;;;;;;5016816;28;20597;-84
2024/01/15 00:49:22;;;;;;;19.42;11.55;;;-7.70;99.90;;;;;;5017919;28;20046;-83
2024/01/15 00:51:48;;;;;;;23.55;12.23;;;-7.70;99.90;;;;;;5014221;28;20041;-85
2024/01/15 00:54:14;;;;;;;19.20;12.07;;;-7.70;99.90;;;;;;5011392;28;20026;-83
2024/01/15 00:56:40;;;;;;;18.23;11.50;;;-7.70;99.90;;;;;;5013011;28;20041;-84
2024/01/15 00:59:06;;;;;;;20.05;12.93;;;-7.60;99.90;;;;;;5011730;28;20407;-85
2024/01/15 01:01:32;;;;;;;17.23;9.57;;;-7.60;99.90;;;;;;5011628;28;20030;-84
2024/01/15 01:03:57;;;;;;;19.95;10.13;;;-7.60;99.90;;;;;;5002304;28;20097;-83
2024/01/15 01:06:23;;;;;;;18.17;9.88;;;-7.60;99.90;;;;;;5016154;28;20037;-84
2024/01/15 01:08:49;;;;;;;20.45;12.35;;;-7.60;99.90;;;;;;5006187;28;20037;-83
2024/01/15 01:11:16;;;;;;;17.98;11.90;;;-7.60;99.90;;;;;;4996903;28;20030;-85
2024/01/15 01:13:42;;;;;;;20.10;11.63;;;-7.50;99.90;;;;;;5015812;28;20496;-83
2024/01/15 01:16:08;;;;;;;18.02;9.90;;;-7.50;99.90;;;;;;5015417;28;20125;-84
2024/01/15 01:18:35;;;;;;;17.10;10.25;;;-7.40;99.90;;;;;;5005342;28;20068;-84
2024/01/15 01:21:00;;;;;;;20.27;11.70;;;-7.40;99.90;;;;;;5007229;28;20034;-83
2024/01/15 01:23:26;;;;;;;25.13;13.25;;;-7.40;99.90;;;;;;5021977;28;20041;-84
2024/01/15 01:25:52;;;;;;;21.88;13.75;;;-7.40;99.90;;;;;;5015031;28;20022;-84
2024/01/15 01:28:18;;;;;;;20.88;12.90;;;-7.40;99.90;;;;;;5014222;28;20036;-86
2024/01/15 01:30:44;;;;;;;19.40;10.68;;;-7.30;99.90;;;;;;5014652;28;20030;-84
2024/01/15 01:33:10;;;;;;;17.70;11.50;;;-7.30;99.90;;;;;;5013665;28;20041;-84
2024/01/15 01:35:36;;;;;;;19.23;11.55;;;-7.30;99.90;;;;;;5025424;28;20116;-83
2024/01/15 01:38:02;;;;;;;17.70;11.30;;;-7.30;99.90;;;;;;5020289;28;20077;-85
2024/01/15 01:40:28;;;;;;;24.63;12.90;;;-7.30;99.90;;;;;;5013167;28;20046;-82
2024/01/15 01:42:54;;;;;;;16.45;10.30;;;-7.20;99.90;;;;;;4998488;28;20081;-83
2024/01/15 01:45:19;;;;;;;25.38;13.60;;;-7.20;99.90;;;;;;4998103;28;20398;-84
2024/01/15 01:47:45;;;;;;;21.30;13.35;;;-7.20;99.90;;;;;;5013096;28;20026;-83
2024/01/15 01:50:12;;;;;;;20.02;12.20;;;-7.20;99.90;;;;;;5011328;28;20173;-83
2024/01/15 01:52:39;;;;;;;16.35;10.90;;;-7.20;99.90;;;;;;5024446;28;20456;-84
2024/01/15 01:55:06;;;;;;;22.10;13.18;;;-7.10;99.90;;;;;;5018532;28;20033;-82
2024/01/15 01:57:34;;;;;;;17.42;10.60;;;-7.10;99.90;;;;;;5016702;28;20030;-83
2024/01/15 02:00:01;;;;;;;22.88;11.73;;;-7.10;99.90;;;;;;4997893;28;20029;-84
2024/01/15 02:02:27;;;;;;;22.98;12.98;;;-7.10;99.90;;;;;;4997438;28;20172;-84
2024/01/15 02:04:53;;;;;;;20.33;13.43;;;-7.00;99.90;;;;;;5015300;28;20768;-84
2024/01/15 02:07:19;;;;;;;20.17;12.75;;;-7.00;99.90;;;;;;4996968;28;20036;-83
2024/01/15 02:09:45;;;;;;;22.05;12.32;;;-7.00;99.90;;;;;;5014192;28;20029;-83
2024/01/15 02:12:11;;;;;;;27.10;13.68;;;-7.00;99.90;;;;;;5013046;28;20026;-84
2024/01/15 02:14:37;;;;;;;23.73;12.57;;;-6.90;99.90;;;;;;4997851;28;20033;-82
2024/01/15 02:17:03;;;;;;;22.20;13.80;;;-6.90;99.90;;;;;;5015375;28;20034;-82
2024/01/15 02:19:29;;;;;;;16.27;11.18;;;-6.90;99.90;;;;;;5016827;28;20427;-82
2024/01/15 02:21:55;;;;;;;16.92;10.52;;;-6.80;99.90;;;;;;5014293;28;20030;-81
2024/01/15 02:24:21;;;;;;;15.50;9.38;;;-6.80;99.90;;;;;;5016760;28;20018;-82
2024/01/15 02:26:47;;;;;;;18.90;12.10;;;-6.90;99.90;;;;;;5001102;28;20387;-82
2024/01/15 02:29:15;;;;;;;19.85;11.15;;;-6.90;99.90;;;;;;5013953;28;20246;-81
2024/01/15 02:31:40;;;;;;;22.05;11.82;;;-6.80;99.90;;;;;;5015434;28;20018;-81
2024/01/15 02:34:06;;;;;;;19.10;11.82;;;-6.80;99.90;;;;;;4996532;28;20033;-81
2024/01/15 02:36:32;;;;;;;40.83;14.27;;;-6.80;99.90;;;;;;5012723;28;20042;-82
2024/01/15 02:39:00;;;;;;;21.17;11.77;;;-6.80;99.90;;;;;;5013503;28;20498;-82
2024/01/15 02:41:26;;;;;;;16.30;10.55;;;-6.70;99.90;;;;;;5012230;28;20104;-82
2024/01/15 02:43:52;;;;;;;21.77;13.10;;;-6.70;99.90;;;;;;5014394;28;20021;-82
2024/01/15 02:46:18;;;;;;;19.85;11.90;;;-6.70;99.90;;;;;;5014683;28;20052;-82
2024/01/15 02:48:44;;;;;;;21.08;11.82;;;-6.70;99.90;;;;;;5013822;28;20018;-82
2024/01/15 02:51:10;;;;;;;22.95;14.30;;;-6.70;99.90;;;;;;5015222;28;20482;-81
2024/01/15 02:53:36;;;;;;;18.95;11.82;;;-6.70;99.90;;;;;;5035290;28;20040;-81
2024/01/15 02:56:02;;;;;;;28.17;14.05;;;-6.60;99.90;;;;;;5020879;28;20121;-82
2024/01/15 02:58:28;;;;;;;21.23;13.10;;;-6.60;99.90;;;;;;5010609;28;20418;-81
2024/01/15 03:00:54;;;;;;;20.00;12.68;;;-6.60;99.90;;;;;;5021239;28;20072;-81
2024/01/15 03:03:20;;;;;;;26.45;13.88;;;-6.60;99.90;;;;;;5008227;28;20037;-81
2024/01/15 03:05:47;;;;;;;20.23;12.65;;;-6.50;99.90;;;;;;5008990;28;20026;-81
2024/01/15 03:08:12;;;;;;;22.98;11.75;;;-6.50;99.90;;;;;;5015281;28;20018;-81
2024/01/15 03:10:38;;;;;;;26.35;14.30;;;-6.50;99.90;;;;;;5013540;28;20044;-82
2024/01/15 03:13:04;;;;;;;24.52;13.85;;;-6.40;99.90;;;;;;5013673;28;20073;-83
2024/01/15 03:15:30;;;;;;;21.55;14.55;;;-6.40;99.90;;;;;;5000023;28;20029;-81
2024/01/15 03:17:56;;;;;;;22.55;14.35;;;-6.40;99.90;;;;;;5016910;28;20022;-81
2024/01/15 03:20:22;;;;;;;26.90;15.48;;;-6.30;99.90;;;;;;5004638;28;20089;-82
2024/01/15 03:22:48;;;;;;;28.77;15.43;;;-6.30;99.90;;;;;;5013432;28;20056;-82
2024/01/15 03:25:13;;;;;;;27.13;13.13;;;-6.20;99.90;;;;;;5013347;28;20037;-82
2024/01/15 03:27:39;;;;;;;23.33;13.40;;;-6.20;99.90;;;;;;5012575;28;20018;-82
2024/01/15 03:30:06;;;;;;;24.58;14.90;;;-6.20;99.90;;;;;;5014044;28;20576;-82
2024/01/15 03:32:32;;;;;;;22.75;13.55;;;-6.10;99.90;;;;;;5014888;28;20022;-81
2024/01/15 03:34:58;;;;;;;25.30;14.10;;;-6.00;99.90;;;;;;5015771;28;20510;-82
2024/01/15 03:37:24;;;;;;;25.50;12.27;;;-6.00;99.90;;;;;;5012431;28;20044;-82
2024/01/15 03:39:49;;;;;;;22.95;13.82;;;-5.90;99.90;;;;;;5014930;28;20029;-84
2024/01/15 03:42:15;;;;;;;26.30;14.60;;;-5.90;99.90;;;;;;5013226;28;20113;-81
2024/01/15 03:44:41;;;;;;;21.20;13.63;;;-5.90;99.90;;;;;;5017302;28;20101;-83
2024/01/15 03:47:07;;;;;;;27.50;15.20;;;-5.90;99.90;;;;;;5014960;28;20561;-84
2024/01/15 03:49:33;;;;;;;26.98;15.25;;;-5.90;99.90;;;;;;5014281;28;20053;-84
2024/01/15 03:51:59;;;;;;;22.52;16.10;;;-5.90;99.90;;;;;;5012863;28;20030;-84
2024/01/15 03:54:25;;;;;;;27.15;14.07;;;-5.90;99.90;;;;;;5013463;28;20018;-84
2024/01/15 03:56:51;;;;;;;23.27;14.27;;;-5.80;99.90;;;;;;5015744;28;20057;-84
2024/01/15 03:59:17;;;;;;;26.23;13.85;;;-5.80;99.90;;;;;;5014004;28;20029;-85
2024/01/15 04:01:49;;;;;;;20.98;12.90;;;-5.80;99.90;;;;;;5014642;28;20030;-85
2024/01/15 04:04:15;;;;;;;25.90;14.57;;;-5.70;99.90;;;;;;5013122;28;20101;-84
2024/01/15 04:06:41;;;;;;;23.85;14.27;;;-5.70;99.90;;;;;;5012329;28;20049;-84
2024/01/15 04:09:07;;;;;;;24.20;14.65;;;-5.70;99.90;;;;;;5013828;28;20026;-84
2024/01/15 04:11:53;;;;;;;22.85;13.43;;;-5.70;99.90;;;;;;5012262;28;20093;-86
2024/01/15 04:14:19;;;;;;;19.45;13.32;;;-5.60;99.90;;;;;;4990653;28;20033;-83
2024/01/15 04:16:45;;;;;;;21.27;11.85;;;-5.60;99.90;;;;;;5011534;28;20042;-83
2024/01/15 04:19:11;;;;;;;24.35;14.50;;;-5.60;99.90;;;;;;5013275;28;20430;-82
2024/01/15 04:21:37;;;;;;;26.00;14.93;;;-5.60;99.90;;;;;;5014328;28;20132;-83
2024/01/15 04:24:03;;;;;;;26.17;17.05;;;-5.60;99.90;;;;;;5032278;28;20029;-82
2024/01/15 04:26:29;;;;;;;24.63;13.38;;;-5.60;99.90;;;;;;5028644;28;20080;-83
2024/01/15 04:28:55;;;;;;;19.10;12.90;;;-5.50;99.90;;;;;;5012838;28;20121;-85
2024/01/15 04:31:22;;;;;;;26.92;16.33;;;-5.60;99.90;;;;;;5012960;28;20026;-83
2024/01/15 04:33:48;;;;;;;26.20;15.30;;;-5.50;99.90;;;;;;5010716;28;20104;-84
2024/01/15 04:36:14;;;;;;;21.50;14.73;;;-5.50;99.90;;;;;;5010961;28;20091;-84
2024/01/15 04:38:40;;;;;;;25.70;14.48;;;-5.50;99.90;;;;;;5009833;28;20911;-85
2024/01/15 04:41:08;;;;;;;28.25;14.98;;;-5.50;99.90;;;;;;5014428;28;20402;-83
2024/01/15 04:43:34;;;;;;;28.75;15.75;;;-5.50;99.90;;;;;;5014690;28;20036;-83
2024/01/15 04:46:00;;;;;;;24.45;13.85;;;-5.50;99.90;;;;;;5016112;28;20054;-85
2024/01/15 04:48:26;;;;;;;25.30;15.68;;;-5.50;99.90;;;;;;5020877;28;20081;-85
2024/01/15 04:50:52;;;;;;;29.13;14.88;;;-5.50;99.90;;;;;;5015144;28;20022;-85
2024/01/15 04:53:17;;;;;;;23.42;14.13;;;-5.50;99.90;;;;;;5009610;28;20100;-84
2024/01/15 04:55:43;;;;;;;29.17;15.88;;;-5.40;99.90;;;;;;5013706;28;20029;-84
2024/01/15 04:58:09;;;;;;;27.05;14.93;;;-5.40;99.90;;;;;;5018627;28;20018;-85
2024/01/15 05:00:35;;;;;;;24.10;15.00;;;-5.40;99.90;;;;;;5018093;28;20025;-85
2024/01/15 05:03:01;;;;;;;27.67;14.02;;;-5.40;99.90;;;;;;5017765;28;20089;-83
2024/01/15 05:05:27;;;;;;;24.52;16.10;;;-5.30;99.90;;;;;;5020658;28;20022;-83
2024/01/15 05:07:53;;;;;;;30.80;15.38;;;-5.20;99.90;;;;;;5015044;28;20030;-84
2024/01/15 05:10:18;;;;;;;23.95;15.95;;;-5.20;99.90;;;;;;5014386;28;20029;-82
2024/01/15 05:12:44;;;;;;;27.10;15.25;;;-5.20;99.90;;;;;;4998538;28;20037;-83
2024/01/15 05:15:11;;;;;;;23.50;14.73;;;-5.20;99.90;;;;;;5016634;28;20037;-82
2024/01/15 05:17:37;;;;;;;29.02;14.98;;;-5.20;99.90;;;;;;5016135;28;20069;-82
2024/01/15 05:20:03;;;;;;;28.73;15.70;;;-5.20;99.90;;;;;;5018292;28;20025;-82
2024/01/15 05:22:29;;;;;;;20.25;12.90;;;-5.10;99.90;;;;;;5030575;28;20014;-83
2024/01/15 05:24:55;;;;;;;23.42;14.90;;;-5.10;99.90;;;;;;5005734;28;20029;-83
2024/01/15 05:27:23;;;;;;;24.42;15.00;;;-5.10;99.90;;;;;;5020524;28;20026;-83
2024/01/15 05:29:52;;;;;;;27.05;14.60;;;-5.10;99.90;;;;;;5023656;28;20041;-83
2024/01/15 05:32:18;;;;;;;29.67;17.75;;;-5.10;99.90;;;;;;5016006;28;20391;-81
2024/01/15 05:34:44;;;;;;;30.58;15.95;;;-5.10;99.90;;;;;;5015589;28;20033;-83
2024/01/15 05:37:10;;;;;;;26.85;15.82;;;-5.10;99.90;;;;;;5015463;28;20034;-83
2024/01/15 05:39:36;;;;;;;22.90;14.30;;;-5.00;99.90;;;;;;5016119;28;20482;-83
2024/01/15 05:42:02;;;;;;;30.97;17.73;;;-5.00;99.90;;;;;;5018660;28;20058;-81
2024/01/15 05:44:28;;;;;;;24.08;16.90;;;-5.00;99.90;;;;;;5017289;28;20274;-80
2024/01/15 05:46:57;;;;;;;23.73;13.43;;;-5.00;99.90;;;;;;4996682;28;20030;-86
2024/01/15 05:49:23;;;;;;;29.77;17.48;;;-5.00;99.90;;;;;;5016812;28;20050;-84
2024/01/15 05:51:48;;;;;;;29.80;14.80;;;-5.00;99.90;;;;;;5016296;28;20084;-85
2024/01/15 05:54:14;;;;;;;28.33;18.05;;;-4.90;99.90;;;;;;5021024;28;20050;-84
2024/01/15 05:56:40;;;;;;;25.13;15.73;;;-4.90;99.90;;;;;;5023816;28;20117;-84
2024/01/15 05:59:06;;;;;;;24.05;14.68;;;-4.90;99.90;;;;;;5013786;28;20026;-86
2024/01/15 06:01:32;;;;;;;30.35;15.68;;;-4.80;99.90;;;;;;5013535;28;20033;-84
2024/01/15 06:03:58;;;;;;;28.67;16.50;;;-4.90;99.90;;;;;;5013775;28;20024;-84
2024/01/15 06:06:24;;;;;;;32.60;17.15;;;-4.80;99.90;;;;;;4998581;28;20034;-83
2024/01/15 06:08:50;;;;;;;23.10;13.27;;;-4.90;99.90;;;;;;5014677;28;20080;-84
2024/01/15 06:11:16;;;;;;;27.88;16.42;;;-4.90;99.90;;;;;;5015278;28;20388;-84
2024/01/15 06:13:41;;;;;;;30.40;18.30;;;-4.90;99.90;;;;;;5014691;28;20034;-80
2024/01/15 06:16:19;;;;;;;31.58;16.70;;;-4.80;99.90;;;;;;5013554;28;20045;-80
2024/01/15 06:18:44;;;;;;;23.30;16.42;;;-4.80;99.90;;;;;;5012741;28;20022;-81
2024/01/15 06:21:12;;;;;;;19.42;14.02;;;-4.80;99.90;;;;;;5014047;28;20033;-82
2024/01/15 06:23:38;;;;;;;29.58;17.10;;;-4.80;99.90;;;;;;5013999;28;20112;-80
2024/01/15 06:26:05;;;;;;;35.88;16.73;;;-4.70;99.90;;;;;;4996428;28;20061;-82
2024/01/15 06:28:31;;;;;;;31.20;17.30;;;-4.70;99.90;;;;;;5011910;28;20498;-80
2024/01/15 06:30:58;;;;;;;29.48;15.52;;;-4.60;99.90;;;;;;5014369;28;20037;-82
2024/01/15 06:33:23;;;;;;;25.65;14.70;;;-4.50;99.90;;;;;;5013700;28;20022;-81
2024/01/15 06:35:50;;;;;;;30.55;18.27;;;-4.50;99.90;;;;;;5017474;28;20036;-80
2024/01/15 06:38:16;;;;;;;31.45;18.13;;;-4.50;99.90;;;;;;5012530;28;20026;-80
2024/01/15 06:40:45;;;;;;;33.83;19.75;;;-4.50;99.90;;;;;;5011549;28;20398;-80
2024/01/15 06:43:17;;;;;;;27.63;18.48;;;-4.40;99.90;;;;;;5016518;28;20085;-80
2024/01/15 06:45:44;;;;;;;29.63;17.60;;;-4.30;99.90;;;;;;5017027;28;20141;-81
2024/01/15 06:48:12;;;;;;;29.30;18.37;;;-4.30;99.90;;;;;;5018054;28;20493;-82
2024/01/15 06:50:38;;;;;;;28.50;14.45;;;-4.20;99.90;;;;;;5012936;28;20684;-80
2024/01/15 06:53:04;;;;;;;30.20;16.95;;;-4.20;99.90;;;;;;5013258;28;20022;-81
2024/01/15 06:55:30;;;;;;;22.98;14.35;;;-4.10;99.90;;;;;;5013570;28;20056;-80
2024/01/15 06:57:56;;;;;;;30.75;16.67;;;-4.10;99.90;;;;;;5013682;28;20085;-80
2024/01/15 07:00:22;;;;;;;31.40;16.48;;;-4.10;99.90;;;;;;5011610;28;20026;-80
2024/01/15 07:02:47;;;;;;;30.30;16.90;;;-4.10;99.90;;;;;;5016864;28;20419;-82
2024/01/15 07:05:13;;;;;;;31.55;17.60;;;-4.10;99.90;;;;;;5007060;28;20026;-82
2024/01/15 07:07:42;;;;;;;32.40;18.38;;;-4.10;99.90;;;;;;5013688;28;20388;-80
2024/01/15 07:10:21;;;;;;;31.75;18.58;;;-4.00;99.90;;;;;;5015528;28;20051;-80
2024/01/15 07:12:47;;;;;;;31.67;17.95;;;-3.90;99.90;;;;;;5013135;28;20030;-81
2024/01/15 07:15:13;;;;;;;24.23;16.92;;;-3.90;99.90;;;;;;5020639;28;20401;-82
2024/01/15 07:17:39;;;;;;;33.65;19.35;;;-3.90;99.90;;;;;;5015998;28;20033;-79
2024/01/15 07:20:13;;;;;;;35.08;17.95;;;-3.80;99.90;;;;;;5013019;28;20096;-82
2024/01/15 07:22:39;;;;;;;28.10;16.67;;;-3.80;99.90;;;;;;5013622;28;20021;-82
2024/01/15 07:25:06;;;;;;;27.00;17.80;;;-3.70;99.90;;;;;;5015501;28;20096;-81
2024/01/15 07:27:32;;;;;;;34.35;18.73;;;-3.70;99.90;;;;;;5029350;28;20390;-84
2024/01/15 07:29:58;;;;;;;28.55;17.25;;;-3.70;99.90;;;;;;5014254;28;20033;-83
2024/01/15 07:32:24;;;;;;;29.83;17.63;;;-3.70;99.90;;;;;;5015758;28;20062;-83
2024/01/15 07:34:50;;;;;;;30.80;18.70;;;-3.70;99.90;;;;;;4997643;28;20022;-80
2024/01/15 07:37:16;;;;;;;32.65;17.38;;;-3.70;99.90;;;;;;5016190;28;20172;-82
2024/01/15 07:39:42;;;;;;;28.52;17.20;;;-3.70;99.90;;;;;;5015386;28;20017;-82
2024/01/15 07:42:08;;;;;;;29.13;16.35;;;-3.70;99.90;;;;;;5012572;28;20076;-78
2024/01/15 07:44:34;;;;;;;28.55;17.50;;;-3.70;99.90;;;;;;5013826;28;20022;-79
2024/01/15 07:47:00;;;;;;;21.50;15.13;;;-3.60;99.90;;;;;;5014074;28;20030;-80
2024/01/15 07:49:26;;;;;;;32.28;17.02;;;-3.60;99.90;;;;;;5013219;28;20030;-78
2024/01/15 07:51:52;;;;;;;23.48;17.85;;;-3.60;99.90;;;;;;5014122;28;20018;-81
2024/01/15 07:54:18;;;;;;;29.50;17.23;;;-3.50;99.90;;;;;;5013402;28;20100;-79
2024/01/15 07:56:59;;;;;;;26.80;16.83;;;-3.50;99.90;;;;;;5011105;28;20088;-80
2024/01/15 07:59:25;;;;;;;28.13;18.73;;;-3.60;99.90;;;;;;4992001;28;20029;-80
2024/01/15 08:01:52;;;;;;;23.15;14.38;;;-3.60;99.90;;;;;;5011529;28;20077;-79
2024/01/15 08:04:18;;;;;;;23.75;15.88;;;-3.60;99.90;;;;;;5012291;28;20022;-78
2024/01/15 08:06:47;;;;;;;32.22;18.42;;;-3.50;99.90;;;;;;5011996;28;20117;-78
2024/01/15 08:09:13;;;;;;;33.60;18.10;;;-3.50;99.90;;;;;;5012053;28;20029;-80
2024/01/15 08:11:41;;;;;;;27.48;16.10;;;-3.40;99.90;;;;;;4994359;28;20048;-76
2024/01/15 08:14:07;;;;;;;31.23;18.10;;;-3.40;99.90;;;;;;5013743;28;20014;-79
2024/01/15 08:16:33;;;;;;;30.42;18.75;;;-3.30;99.90;;;;;;5018370;28;20026;-78
2024/01/15 08:18:59;;;;;;;31.40;19.55;;;-3.30;99.90;;;;;;5018478;28;20415;-80
2024/01/15 08:21:25;;;;;;;33.22;19.42;;;-3.30;99.90;;;;;;5018392;28;20536;-78
2024/01/15 08:23:51;;;;;;;38.25;21.42;;;-3.20;99.90;;;;;;5019048;28;20026;-77
2024/01/15 08:26:17;;;;;;;30.95;19.42;;;-3.20;99.90;;;;;;5018381;28;20018;-78
2024/01/15 08:28:43;;;;;;;32.50;19.45;;;-3.10;99.90;;;;;;5018408;28;20564;-79
2024/01/15 08:31:09;;;;;;;32.05;17.58;;;-3.10;99.90;;;;;;5021321;28;20475;-78
2024/01/15 08:33:35;;;;;;;35.95;18.58;;;-3.10;99.90;;;;;;5018060;28;20026;-78
2024/01/15 08:36:02;;;;;;;35.78;24.38;;;-3.00;99.90;;;;;;5016716;28;20507;-78
2024/01/15 08:38:28;;;;;;;29.65;17.55;;;-3.00;99.90;;;;;;5018091;28;20487;-79
2024/01/15 08:40:56;;;;;;;29.30;14.68;;;-3.00;99.90;;;;;;5018114;28;20037;-79
2024/01/15 08:43:22;;;;;;;30.25;19.45;;;-2.90;99.90;;;;;;5018142;28;20378;-77
2024/01/15 08:45:48;;;;;;;30.73;16.75;;;-2.90;99.90;;;;;;5016712;28;20046;-78
2024/01/15 08:48:14;;;;;;;27.80;15.63;;;-2.70;99.90;;;;;;5017848;28;20033;-79
2024/01/15 08:50:40;;;;;;;31.95;21.08;;;-2.60;99.90;;;;;;5017522;28;20026;-77
2024/01/15 08:53:05;;;;;;;30.95;17.90;;;-2.50;99.90;;;;;;5017294;28;20018;-79
2024/01/15 08:55:31;;;;;;;30.48;17.35;;;-2.40;99.90;;;;;;5019068;28;20018;-78
2024/01/15 08:57:57;;;;;;;34.83;18.17;;;-2.40;99.90;;;;;;5018551;28;20069;-80
2024/01/15 09:00:23;;;;;;;32.55;18.73;;;-2.30;99.90;;;;;;5020340;28;20080;-79
2024/01/15 09:02:49;;;;;;;28.95;15.43;;;-2.40;99.90;;;;;;5017389;28;20483;-79
2024/01/15 09:05:15;;;;;;;38.42;18.50;;;-2.40;99.90;;;;;;5017384;28;20030;-80
2024/01/15 09:07:41;;;;;;;32.85;19.23;;;-2.40;99.90;;;;;;5018175;28;20040;-78
2024/01/15 09:10:07;;;;;;;33.10;18.92;;;-2.40;99.90;;;;;;5018123;28;20041;-80
2024/01/15 09:12:33;;;;;;;38.28;19.55;;;-2.40;99.90;;;;;;5017990;28;20029;-79
2024/01/15 09:14:59;;;;;;;33.63;18.33;;;-2.40;99.90;;;;;;5017811;28;20022;-78
2024/01/15 09:17:25;;;;;;;29.08;17.90;;;-2.40;99.90;;;;;;5017845;28;20022;-79
2024/01/15 09:19:51;;;;;;;21.63;15.48;;;-2.40;99.90;;;;;;5016960;28;20467;-77
2024/01/15 09:22:20;;;;;;;30.27;17.95;;;-2.40;99.90;;;;;;5018049;28;20029;-77
2024/01/15 09:24:47;;;;;;;31.50;17.70;;;-2.50;99.90;;;;;;5017551;28;20022;-79
2024/01/15 09:27:13;;;;;;;37.88;19.90;;;-2.50;99.90;;;;;;5013593;28;20030;-78
2024/01/15 09:29:41;;;;;;;26.73;17.90;;;-2.40;99.90;;;;;;5014683;28;20487;-80
2024/01/15 09:32:08;;;;;;;29.23;19.23;;;-2.30;99.90;;;;;;5014740;28;20063;-79
2024/01/15 09:34:34;;;;;;;26.38;15.18;;;-2.30;99.90;;;;;;5014202;28;20034;-77
2024/01/15 09:37:01;;;;;;;23.85;14.25;;;-2.20;99.90;;;;;;4996549;28;20589;-78
2024/01/15 09:39:27;;;;;;;26.95;16.38;;;-2.30;99.90;;;;;;5015020;28;20038;-78
2024/01/15 09:41:55;;;;;;;30.52;18.17;;;-2.20;99.90;;;;;;5014420;28;20030;-77
2024/01/15 09:44:21;;;;;;;27.38;17.77;;;-2.10;99.90;;;;;;5013566;28;20034;-79
2024/01/15 09:46:50;;;;;;;29.17;17.27;;;-2.00;99.90;;;;;;5013746;28;20514;-79
2024/01/15 09:49:17;;;;;;;33.35;19.25;;;-1.90;99.90;;;;;;5014479;28;20018;-78
2024/01/15 09:51:43;;;;;;;23.88;15.70;;;-1.90;99.90;;;;;;5013853;28;20426;-78
2024/01/15 09:54:10;;;;;;;24.73;15.32;;;-1.90;99.90;;;;;;5014275;28;20069;-78
2024/01/15 09:56:36;;;;;;;21.43;13.43;;;-1.90;99.90;;;;;;5014126;28;20029;-78
2024/01/15 09:59:05;;;;;;;27.42;16.83;;;-1.80;99.90;;;;;;5014618;28;20093;-77
2024/01/15 10:01:32;;;;;;;22.10;13.10;;;-1.80;99.90;;;;;;5014818;28;20026;-77
2024/01/15 10:04:01;;;;;;;32.50;16.70;;;-1.70;99.90;;;;;;5014670;28;20022;-80
2024/01/15 10:06:28;;;;;;;23.52;15.57;;;-1.80;99.90;;;;;;5014177;28;20037;-80
2024/01/15 10:08:56;;;;;;;24.23;13.50;;;-1.80;99.90;;;;;;5013122;28;20022;-80
2024/01/15 10:11:22;;;;;;;28.65;16.15;;;-1.80;99.90;;;;;;5016440;28;20291;-81
2024/01/15 10:13:52;;;;;;;22.75;14.02;;;-1.90;99.90;;;;;;5016969;28;20025;-79
2024/01/15 10:16:17;;;;;;;25.25;17.23;;;-1.80;99.90;;;;;;5015581;28;20073;-79
2024/01/15 10:18:43;;;;;;;26.30;14.15;;;-1.90;99.90;;;;;;5014245;28;20022;-80
2024/01/15 10:21:09;;;;;;;28.83;17.25;;;-1.90;99.90;;;;;;5012210;28;20483;-79
2024/01/15 10:23:36;;;;;;;19.90;13.48;;;-1.90;99.90;;;;;;5013938;28;20407;-79
2024/01/15 10:26:03;;;;;;;26.93;16.47;;;-2.00;99.90;;;;;;5014291;28;20030;-79
2024/01/15 10:28:30;;;;;;;24.20;15.30;;;-2.00;99.90;;;;;;5015327;28;20022;-78
2024/01/15 10:31:01;;;;;;;23.98;15.63;;;-2.00;99.90;;;;;;5014525;28;20030;-82
2024/01/15 10:33:27;;;;;;;23.20;13.88;;;-2.10;99.90;;;;;;5011650;28;20037;-77
2024/01/15 10:35:57;;;;;;;21.42;13.57;;;-2.00;99.90;;;;;;5012737;28;20402;-77
2024/01/15 10:38:26;;;;;;;27.20;14.85;;;-2.00;99.90;;;;;;5010952;28;20387;-79
2024/01/15 10:40:56;;;;;;;22.85;14.23;;;-2.10;99.90;;;;;;5013594;28;20026;-78
2024/01/15 10:43:22;;;;;;;30.77;15.40;;;-2.00;99.90;;;;;;5013797;28;20077;-78
2024/01/15 10:45:50;;;;;;;21.20;14.87;;;-2.10;99.90;;;;;;5013304;28;20975;-81
2024/01/15 10:48:18;;;;;;;27.48;17.00;;;-2.10;99.90;;;;;;5012140;28;20382;-81
2024/01/15 10:50:45;;;;;;;26.25;16.15;;;-2.00;99.90;;;;;;5012941;28;20509;-79
2024/01/15 10:53:18;;;;;;;32.78;15.63;;;-1.90;99.90;;;;;;5014924;28;20049;-92
2024/01/15 10:55:46;;;;;;;26.27;15.93;;;-1.90;99.90;;;;;;4995471;28;20189;-88
2024/01/15 10:58:14;;;;;;;21.70;13.32;;;-1.80;99.90;;;;;;4996987;28;20114;-87
2024/01/15 11:00:41;;;;;;;27.00;15.45;;;-1.90;99.90;;;;;;5004660;28;20045;-89
2024/01/15 11:03:07;;;;;;;21.98;14.88;;;-1.90;99.90;;;;;;4999516;28;20054;-87
2024/01/15 11:05:43;;;;;;;25.85;15.85;;;-1.90;99.90;;;;;;4991667;28;20769;-82
2024/01/15 11:08:09;;;;;;;26.95;16.85;;;-1.90;99.90;;;;;;5000024;28;20109;-82
2024/01/15 11:10:46;;;;;;;25.17;14.80;;;-1.90;99.90;;;;;;4997885;28;20033;-80
2024/01/15 11:13:15;;;;;;;27.88;17.27;;;-1.80;99.90;;;;;;4992491;28;20031;-80
2024/01/15 11:16:01;;;;;;;27.70;16.35;;;-1.80;99.90;;;;;;4991688;28;20031;-81
2024/01/15 11:18:42;;;;;;;25.73;14.13;;;-1.80;99.90;;;;;;4979260;28;20420;-81
2024/01/15 11:21:16;;;;;;;28.63;17.88;;;-1.80;99.90;;;;;;4991263;28;20592;-80
2024/01/15 11:23:46;;;;;;;27.52;15.75;;;-1.80;99.90;;;;;;4991684;28;20026;-82
2024/01/15 11:26:37;;;;;;;29.45;15.80;;;-1.90;99.90;;;;;;4991957;28;20423;-83
2024/01/15 11:29:08;;;;;;;28.65;15.65;;;-1.80;99.90;;;;;;4972714;28;20656;-81
2024/01/15 11:31:39;;;;;;;19.95;13.43;;;-1.80;99.90;;;;;;4991277;28;20034;-82
2024/01/15 11:34:09;;;;;;;21.45;11.05;;;-1.80;99.90;;;;;;4993524;28;20029;-82
2024/01/15 11:36:53;;;;;;;32.00;18.85;;;-1.80;99.90;;;;;;5011920;28;20109;-79
2024/01/15 11:39:42;;;;;;;27.65;15.93;;;-1.90;99.90;;;;;;5012766;28;20025;-80
2024/01/15 11:42:09;;;;;;;29.83;17.15;;;-1.90;99.90;;;;;;5013106;28;20775;-80
2024/01/15 11:44:36;;;;;;;25.70;14.27;;;-1.80;99.90;;;;;;5012661;28;20064;-80
2024/01/15 11:47:05;;;;;;;26.65;16.10;;;-1.80;99.90;;;;;;4995444;28;20233;-80
2024/01/15 11:50:05;;;;;;;28.75;17.02;;;-1.80;99.90;;;;;;5012297;28;20047;-79
2024/01/15 11:52:35;;;;;;;25.33;15.55;;;-1.80;99.90;;;;;;5012617;28;20032;-80
2024/01/15 11:55:22;;;;;;;30.45;17.27;;;-1.70;99.90;;;;;;5012672;28;20025;-78
2024/01/15 11:57:54;;;;;;;23.67;15.35;;;-1.70;99.90;;;;;;5015495;28;20025;-77
2024/01/15 12:00:20;;;;;;;22.83;15.10;;;-1.70;99.90;;;;;;5013483;28;20109;-77
2024/01/15 12:02:47;;;;;;;25.65;15.20;;;-1.70;99.90;;;;;;5014237;28;20025;-81
2024/01/15 12:05:17;;;;;;;30.08;17.50;;;-1.80;99.90;;;;;;5011837;28;20141;-79
2024/01/15 12:07:44;;;;;;;29.02;17.08;;;-1.80;99.90;;;;;;5012156;28;20030;-80
2024/01/15 12:10:12;;;;;;;27.50;15.65;;;-1.80;99.90;;;;;;5012446;28;20102;-79
2024/01/15 12:12:50;;;;;;;27.42;18.10;;;-1.90;99.90;;;;;;5013106;28;20032;-78
2024/01/15 12:15:16;;;;;;;24.95;16.25;;;-1.80;99.90;;;;;;4995367;28;20029;-78
2024/01/15 12:17:42;;;;;;;29.80;18.92;;;-1.80;99.90;;;;;;5013466;28;20030;-77
2024/01/15 12:20:08;;;;;;;28.23;17.25;;;-1.80;99.90;;;;;;5013680;28;20029;-81
2024/01/15 12:22:34;;;;;;;23.73;15.55;;;-1.90;99.90;;;;;;5012315;28;20033;-77
2024/01/15 12:25:04;;;;;;;28.20;15.35;;;-1.80;99.90;;;;;;5012055;28;20010;-80
2024/01/15 12:27:30;;;;;;;27.23;16.52;;;-1.80;99.90;;;;;;5016048;28;20061;-84